Time;durP1;ratioP1;P1;durP2;ratioP2;P2;SDS_P1;SDS_P2;PMS_P1;PMS_P2;Temp;Humidity;BMP_temperature;BMP_pressure;BME280_temperature;BME280_humidity;BME280_pressure;Samples;Min_cycle;Max_cycle;Signal;HPM_P1;HPM_P2
2020/08/06 00:01:47;;;;;;;46.70;42.95;;;;;;;21.69;64.82;100649.25;;;;-48
2020/08/06 00:04:47;;;;;;;56.41;51.96;;;;;;;21.69;64.86;100649.66;;;;-48
2020/08/06 00:07:47;;;;;;;53.21;48.93;;;;;;;21.68;64.83;100650.22;;;;-47
2020/08/06 00:10:47;;;;;;;58.97;54.24;;;;;;;21.68;64.80;100654.45;;;;-47
2020/08/06 00:13:47;;;;;;;49.61;45.64;;;;;;;21.68;64.83;100652.09;;;;-47
2020/08/06 00:16:47;;;;;;;47.36;43.54;;;;;;;21.68;64.84;100651.45;;;;-48
2020/08/06 00:19:47;;;;;;;58.25;53.67;;;;;;;21.67;64.78;100653.16;;;;-47
2020/08/06 00:22:47;;;;;;;54.73;50.38;;;;;;;21.67;64.80;100656.34;;;;-47
2020/08/06 00:25:47;;;;;;;47.90;44.02;;;;;;;21.67;64.80;100653.58;;;;-48
2020/08/06 00:28:47;;;;;;;60.71;55.85;;;;;;;21.67;64.82;100651.95;;;;-47
2020/08/06 00:31:47;;;;;;;57.96;53.41;;;;;;;21.67;64.82;100660.59;;;;-53
2020/08/06 00:34:47;;;;;;;48.47;44.68;;;;;;;21.66;64.84;100662.86;;;;-53
2020/08/06 00:37:47;;;;;;;53.09;48.89;;;;;;;21.65;64.80;100665.23;;;;-53
2020/08/06 00:40:47;;;;;;;53.65;49.40;;;;;;;21.66;64.81;100664.33;;;;-53
2020/08/06 00:43:47;;;;;;;50.78;46.67;;;;;;;21.65;64.77;100671.10;;;;-53
2020/08/06 00:46:47;;;;;;;57.04;52.51;;;;;;;21.65;64.78;100672.01;;;;-53
2020/08/06 00:49:47;;;;;;;48.23;44.45;;;;;;;21.65;64.78;100670.70;;;;-53
2020/08/06 00:52:47;;;;;;;59.79;54.91;;;;;;;21.65;64.83;100668.75;;;;-53
2020/08/06 00:55:47;;;;;;;49.91;45.96;;;;;;;21.65;64.84;100675.68;;;;-53
2020/08/06 00:58:47;;;;;;;61.63;56.72;;;;;;;21.65;64.78;100675.93;;;;-53
2020/08/06 01:01:47;;;;;;;65.15;59.87;;;;;;;21.64;64.78;100670.36;;;;-53
2020/08/06 01:04:47;;;;;;;54.21;49.94;;;;;;;21.64;64.77;100668.73;;;;-53
2020/08/06 01:07:47;;;;;;;68.36;63.00;;;;;;;21.64;64.83;100666.69;;;;-53
2020/08/06 01:10:47;;;;;;;55.80;51.37;;;;;;;21.63;64.82;100668.66;;;;-53
2020/08/06 01:13:47;;;;;;;59.61;54.91;;;;;;;21.63;64.76;100669.97;;;;-53
2020/08/06 01:16:47;;;;;;;66.29;61.11;;;;;;;21.63;64.76;100667.28;;;;-53
2020/08/06 01:19:47;;;;;;;64.86;59.74;;;;;;;21.63;64.76;100668.09;;;;-53
2020/08/06 01:22:47;;;;;;;71.31;65.77;;;;;;;21.63;64.77;100669.23;;;;-53
2020/08/06 01:25:47;;;;;;;58.16;53.59;;;;;;;21.62;64.78;100670.14;;;;-53
2020/08/06 01:28:47;;;;;;;61.19;56.43;;;;;;;21.62;64.77;100669.87;;;;-53
2020/08/06 01:31:47;;;;;;;56.46;51.99;;;;;;;21.62;64.80;100672.09;;;;-53
2020/08/06 01:34:47;;;;;;;58.33;53.69;;;;;;;21.62;64.76;100671.34;;;;-53
2020/08/06 01:37:47;;;;;;;54.07;49.86;;;;;;;21.62;64.76;100671.99;;;;-53
2020/08/06 01:40:47;;;;;;;55.31;50.95;;;;;;;21.62;64.73;100666.28;;;;-53
2020/08/06 01:43:47;;;;;;;66.67;61.41;;;;;;;21.61;64.78;100667.59;;;;-53
2020/08/06 01:46:47;;;;;;;53.31;49.03;;;;;;;21.62;64.72;100671.83;;;;-53
2020/08/06 01:49:47;;;;;;;56.16;51.74;;;;;;;21.61;64.73;100670.30;;;;-53
2020/08/06 01:52:47;;;;;;;59.20;54.55;;;;;;;21.61;64.74;100671.52;;;;-53
2020/08/06 01:55:47;;;;;;;56.75;52.31;;;;;;;21.60;64.72;100669.38;;;;-53
2020/08/06 01:58:47;;;;;;;58.54;53.81;;;;;;;21.61;64.73;100671.84;;;;-53
2020/08/06 02:01:47;;;;;;;55.32;50.97;;;;;;;21.60;64.78;100669.21;;;;-53
2020/08/06 02:04:47;;;;;;;55.76;51.39;;;;;;;21.60;64.73;100672.40;;;;-53
2020/08/06 02:07:47;;;;;;;52.67;48.51;;;;;;;21.60;64.72;100674.52;;;;-53
2020/08/06 02:10:47;;;;;;;55.70;51.37;;;;;;;21.59;64.75;100671.42;;;;-53
2020/08/06 02:13:47;;;;;;;54.50;50.21;;;;;;;21.59;64.75;100671.17;;;;-53
2020/08/06 02:16:47;;;;;;;60.57;55.79;;;;;;;21.60;64.74;100666.69;;;;-53
2020/08/06 02:19:47;;;;;;;61.66;56.81;;;;;;;21.59;64.73;100669.06;;;;-53
2020/08/06 02:22:47;;;;;;;47.75;44.06;;;;;;;21.59;64.73;100668.82;;;;-53
2020/08/06 02:25:47;;;;;;;49.75;45.85;;;;;;;21.59;64.71;100665.07;;;;-53
2020/08/06 02:28:47;;;;;;;62.09;57.21;;;;;;;21.59;64.72;100667.19;;;;-53
2020/08/06 02:31:47;;;;;;;49.17;45.21;;;;;;;21.59;64.75;100660.99;;;;-53
2020/08/06 02:34:47;;;;;;;55.12;50.72;;;;;;;21.59;64.71;100665.56;;;;-53
2020/08/06 02:37:47;;;;;;;50.49;46.47;;;;;;;21.59;64.73;100668.17;;;;-53
2020/08/06 02:40:47;;;;;;;63.99;58.87;;;;;;;21.58;64.73;100671.68;;;;-53
2020/08/06 02:43:47;;;;;;;50.31;46.32;;;;;;;21.58;64.71;100670.52;;;;-53
2020/08/06 02:46:47;;;;;;;61.15;56.37;;;;;;;21.58;64.68;100673.94;;;;-53
2020/08/06 02:49:47;;;;;;;65.71;60.58;;;;;;;21.58;64.71;100674.37;;;;-53
2020/08/06 02:52:47;;;;;;;60.93;56.10;;;;;;;21.58;64.70;100671.33;;;;-53
2020/08/06 02:55:47;;;;;;;67.78;62.46;;;;;;;21.57;64.69;100671.75;;;;-53
2020/08/06 02:58:47;;;;;;;60.01;55.26;;;;;;;21.57;64.68;100672.33;;;;-53
2020/08/06 03:01:47;;;;;;;64.24;59.23;;;;;;;21.57;64.69;100675.50;;;;-53
2020/08/06 03:04:47;;;;;;;60.25;55.55;;;;;;;21.57;64.68;100676.33;;;;-53
2020/08/06 03:07:47;;;;;;;65.70;60.53;;;;;;;21.56;64.69;100677.87;;;;-53
2020/08/06 03:10:47;;;;;;;62.11;57.28;;;;;;;21.57;64.66;100684.16;;;;-53
2020/08/06 03:13:47;;;;;;;65.84;60.69;;;;;;;21.56;64.66;100686.12;;;;-53
2020/08/06 03:16:47;;;;;;;57.93;53.44;;;;;;;21.56;64.67;100684.89;;;;-53
2020/08/06 03:19:47;;;;;;;66.56;61.30;;;;;;;21.56;64.68;100688.78;;;;-53
2020/08/06 03:22:47;;;;;;;55.31;50.99;;;;;;;21.55;64.68;100688.78;;;;-53
2020/08/06 03:25:47;;;;;;;49.92;45.89;;;;;;;21.56;64.72;100692.86;;;;-53
2020/08/06 03:28:47;;;;;;;56.15;51.75;;;;;;;21.55;64.69;100690.34;;;;-53
2020/08/06 03:31:47;;;;;;;61.35;56.53;;;;;;;21.55;64.65;100690.42;;;;-53
2020/08/06 03:34:47;;;;;;;61.31;56.48;;;;;;;21.55;64.70;100691.40;;;;-53
2020/08/06 03:37:47;;;;;;;62.05;57.15;;;;;;;21.55;64.67;100691.64;;;;-53
2020/08/06 03:40:47;;;;;;;64.65;59.47;;;;;;;21.56;64.71;100691.15;;;;-53
2020/08/06 03:43:47;;;;;;;68.82;63.41;;;;;;;21.55;64.71;100696.86;;;;-53
2020/08/06 03:46:47;;;;;;;69.94;64.51;;;;;;;21.55;64.70;100702.58;;;;-53
2020/08/06 03:49:47;;;;;;;70.49;64.93;;;;;;;21.54;64.69;100704.38;;;;-53
2020/08/06 03:52:47;;;;;;;73.87;68.17;;;;;;;21.54;64.65;100706.74;;;;-53
2020/08/06 03:55:47;;;;;;;63.79;58.67;;;;;;;21.54;64.65;100709.35;;;;-53
2020/08/06 03:58:47;;;;;;;75.59;69.60;;;;;;;21.55;64.65;100713.02;;;;-53
2020/08/06 04:01:47;;;;;;;70.69;65.17;;;;;;;21.54;64.65;100715.31;;;;-53
2020/08/06 04:04:47;;;;;;;69.35;63.97;;;;;;;21.54;64.69;100717.67;;;;-53
2020/08/06 04:07:47;;;;;;;58.18;53.63;;;;;;;21.54;64.67;100720.03;;;;-53
2020/08/06 04:10:47;;;;;;;63.69;58.61;;;;;;;21.54;64.68;100728.19;;;;-53
2020/08/06 04:13:47;;;;;;;63.69;58.71;;;;;;;21.54;64.69;100726.73;;;;-53
2020/08/06 04:16:47;;;;;;;59.89;55.24;;;;;;;21.54;64.71;100737.41;;;;-52
2020/08/06 04:19:47;;;;;;;63.97;58.95;;;;;;;21.54;64.71;100743.83;;;;-53
2020/08/06 04:22:47;;;;;;;68.24;62.89;;;;;;;21.54;64.65;100746.45;;;;-53
2020/08/06 04:25:47;;;;;;;77.09;71.08;;;;;;;21.54;64.71;100745.64;;;;-53
2020/08/06 04:28:47;;;;;;;70.81;65.30;;;;;;;21.54;64.69;100746.02;;;;-53
2020/08/06 04:31:47;;;;;;;74.35;68.59;;;;;;;21.53;64.66;100743.59;;;;-52
2020/08/06 04:34:47;;;;;;;72.65;67.01;;;;;;;21.53;64.66;100749.45;;;;-53
2020/08/06 04:37:47;;;;;;;45.35;41.88;;;;;;;21.53;64.71;100752.64;;;;-53
2020/08/06 04:40:47;;;;;;;50.17;46.19;;;;;;;21.53;64.63;100757.94;;;;-53
2020/08/06 04:43:47;;;;;;;63.96;58.93;;;;;;;21.54;64.69;100757.77;;;;-53
2020/08/06 04:46:47;;;;;;;64.55;59.50;;;;;;;21.53;64.35;100765.20;;;;-52
2020/08/06 04:49:47;;;;;;;66.73;61.50;;;;;;;21.36;60.50;100767.89;;;;-52
2020/08/06 04:52:47;;;;;;;73.89;67.53;;;;;;;21.24;60.66;100768.66;;;;-52
2020/08/06 04:55:47;;;;;;;82.57;76.07;;;;;;;21.11;60.40;100768.53;;;;-52
2020/08/06 04:58:47;;;;;;;90.95;83.93;;;;;;;21.01;60.55;100771.74;;;;-52
2020/08/06 05:01:47;;;;;;;75.09;69.15;;;;;;;20.88;60.68;100778.69;;;;-52
2020/08/06 05:04:47;;;;;;;83.87;77.25;;;;;;;20.82;60.89;100782.80;;;;-52
2020/08/06 05:07:47;;;;;;;74.84;68.96;;;;;;;20.79;61.42;100789.13;;;;-52
2020/08/06 05:10:47;;;;;;;94.02;86.37;;;;;;;20.73;61.44;100785.86;;;;-52
2020/08/06 05:13:47;;;;;;;82.13;75.61;;;;;;;20.66;61.39;100789.53;;;;-52
2020/08/06 05:16:47;;;;;;;94.45;87.07;;;;;;;20.63;61.45;100792.80;;;;-52
2020/08/06 05:19:47;;;;;;;94.88;87.39;;;;;;;20.57;61.19;100792.55;;;;-53
2020/08/06 05:22:47;;;;;;;91.37;84.19;;;;;;;20.54;61.52;100796.09;;;;-53
2020/08/06 05:25:47;;;;;;;103.07;95.23;;;;;;;20.45;61.99;100794.89;;;;-53
2020/08/06 05:28:47;;;;;;;53.59;49.21;;;;;;;20.45;62.10;100798.23;;;;-53
2020/08/06 05:31:47;;;;;;;70.29;64.79;;;;;;;20.43;62.02;100797.41;;;;-52
2020/08/06 05:34:47;;;;;;;57.81;53.25;;;;;;;20.44;62.20;100794.25;;;;-52
2020/08/06 05:37:47;;;;;;;46.39;42.64;;;;;;;20.42;62.33;100797.95;;;;-53
2020/08/06 05:40:47;;;;;;;47.17;43.34;;;;;;;20.41;62.77;100797.55;;;;-52
2020/08/06 05:43:47;;;;;;;39.63;36.40;;;;;;;20.40;63.02;100798.38;;;;-52
2020/08/06 05:46:47;;;;;;;60.89;55.85;;;;;;;20.40;63.40;100802.03;;;;-52
2020/08/06 05:49:47;;;;;;;54.50;50.22;;;;;;;20.42;62.62;100803.27;;;;-52
2020/08/06 05:52:47;;;;;;;70.32;64.77;;;;;;;20.42;62.52;100805.84;;;;-53
2020/08/06 05:55:47;;;;;;;63.33;58.31;;;;;;;20.43;62.31;100806.53;;;;-52
2020/08/06 05:58:47;;;;;;;61.45;56.47;;;;;;;20.44;62.37;100802.53;;;;-52
2020/08/06 06:01:47;;;;;;;71.94;66.34;;;;;;;20.44;62.79;100802.97;;;;-52
2020/08/06 06:04:47;;;;;;;78.29;71.96;;;;;;;20.46;62.90;100801.81;;;;-52
2020/08/06 06:07:47;;;;;;;79.84;73.12;;;;;;;20.49;63.05;100802.26;;;;-53
2020/08/06 06:10:47;;;;;;;75.68;69.73;;;;;;;20.52;63.04;100799.74;;;;-52
2020/08/06 06:13:47;;;;;;;59.06;54.23;;;;;;;20.55;63.08;100798.64;;;;-53
2020/08/06 06:16:47;;;;;;;76.57;70.50;;;;;;;20.59;63.10;100801.47;;;;-52
2020/08/06 06:19:47;;;;;;;57.87;53.25;;;;;;;20.62;63.11;100800.34;;;;-52
2020/08/06 06:22:47;;;;;;;76.77;70.59;;;;;;;20.65;63.13;100803.14;;;;-53
2020/08/06 06:25:47;;;;;;;63.57;58.59;;;;;;;20.68;63.10;100805.19;;;;-53
2020/08/06 06:28:47;;;;;;;92.22;84.96;;;;;;;20.70;63.10;100806.42;;;;-52
2020/08/06 06:31:47;;;;;;;80.89;74.23;;;;;;;20.71;63.13;100809.38;;;;-53
2020/08/06 06:34:47;;;;;;;82.15;75.61;;;;;;;20.73;63.17;100812.38;;;;-53
2020/08/06 06:37:47;;;;;;;83.94;77.32;;;;;;;20.75;63.16;100811.25;;;;-53
2020/08/06 06:40:47;;;;;;;62.00;57.06;;;;;;;20.75;63.19;100811.84;;;;-53
2020/08/06 06:43:47;;;;;;;65.11;60.01;;;;;;;20.77;63.21;100813.71;;;;-53
2020/08/06 06:46:47;;;;;;;60.87;56.12;;;;;;;20.78;63.20;100815.28;;;;-53
2020/08/06 06:49:47;;;;;;;60.47;55.73;;;;;;;20.78;63.23;100820.81;;;;-53
2020/08/06 06:52:47;;;;;;;62.59;57.65;;;;;;;20.79;63.24;100822.60;;;;-53
2020/08/06 06:55:47;;;;;;;76.66;70.66;;;;;;;20.80;63.25;100824.50;;;;-53
2020/08/06 06:58:47;;;;;;;77.07;70.91;;;;;;;20.81;63.29;100825.06;;;;-53
2020/08/06 07:01:47;;;;;;;66.75;61.35;;;;;;;20.82;63.28;100829.80;;;;-53
2020/08/06 07:04:47;;;;;;;66.24;61.06;;;;;;;20.83;63.30;100830.20;;;;-53
2020/08/06 07:07:47;;;;;;;64.86;59.76;;;;;;;20.83;63.31;100834.61;;;;-53
2020/08/06 07:10:47;;;;;;;60.82;56.06;;;;;;;20.84;63.31;100838.38;;;;-53
2020/08/06 07:13:47;;;;;;;68.52;63.11;;;;;;;20.84;63.32;100837.80;;;;-53
2020/08/06 07:16:47;;;;;;;78.00;71.92;;;;;;;20.85;63.38;100834.45;;;;-53
2020/08/06 07:19:47;;;;;;;81.97;75.48;;;;;;;20.86;63.43;100837.66;;;;-53
2020/08/06 07:22:47;;;;;;;68.30;63.01;;;;;;;20.86;63.48;100835.05;;;;-53
2020/08/06 07:25:47;;;;;;;88.93;82.01;;;;;;;20.89;63.59;100835.95;;;;-59
2020/08/06 07:28:47;;;;;;;98.57;90.77;;;;;;;20.93;63.67;100836.39;;;;-56
2020/08/06 07:31:47;;;;;;;100.93;93.16;;;;;;;20.94;63.67;100835.10;;;;-56
2020/08/06 07:34:47;;;;;;;109.19;100.62;;;;;;;20.96;63.63;100831.94;;;;-55
2020/08/06 07:37:47;;;;;;;97.46;89.71;;;;;;;20.98;63.65;100840.89;;;;-56
2020/08/06 07:40:47;;;;;;;95.37;87.81;;;;;;;20.98;63.68;100836.44;;;;-55
2020/08/06 07:43:47;;;;;;;94.85;87.39;;;;;;;20.99;63.66;100835.61;;;;-56
2020/08/06 07:46:47;;;;;;;75.60;69.65;;;;;;;21.00;63.69;100835.39;;;;-55
2020/08/06 07:49:47;;;;;;;98.13;89.47;;;;;;;21.03;63.80;100834.25;;;;-60
2020/08/06 07:52:47;;;;;;;86.99;79.34;;;;;;;21.04;63.78;100833.52;;;;-51
2020/08/06 07:55:47;;;;;;;91.26;83.65;;;;;;;21.05;63.81;100835.65;;;;-52
2020/08/06 07:58:47;;;;;;;110.28;101.18;;;;;;;21.06;63.98;100838.33;;;;-59
2020/08/06 08:01:47;;;;;;;77.04;70.48;;;;;;;21.09;64.08;100840.89;;;;-54
2020/08/06 08:04:47;;;;;;;95.21;87.49;;;;;;;21.10;64.00;100841.13;;;;-54
2020/08/06 08:07:47;;;;;;;104.00;95.06;;;;;;;21.12;64.24;100840.33;;;;-55
2020/08/06 08:10:47;;;;;;;118.50;108.43;;;;;;;21.14;64.32;100841.23;;;;-59
2020/08/06 08:13:47;;;;;;;88.11;79.80;;;;;;;21.17;64.42;100842.66;;;;-54
2020/08/06 08:16:47;;;;;;;68.13;62.23;;;;;;;21.18;64.42;100844.43;;;;-55
2020/08/06 08:19:47;;;;;;;84.67;77.32;;;;;;;21.20;64.44;100837.76;;;;-53
2020/08/06 08:22:47;;;;;;;87.78;80.45;;;;;;;21.22;64.54;100841.19;;;;-55
2020/08/06 08:25:47;;;;;;;123.25;112.71;;;;;;;21.24;64.29;100838.68;;;;-55
2020/08/06 08:28:47;;;;;;;88.49;80.62;;;;;;;21.26;64.73;100836.65;;;;-51
2020/08/06 08:31:47;;;;;;;84.67;77.20;;;;;;;21.28;64.71;100847.42;;;;-57
2020/08/06 08:34:47;;;;;;;87.69;79.37;;;;;;;21.31;64.76;100839.84;;;;-55
2020/08/06 08:37:47;;;;;;;77.79;70.44;;;;;;;21.33;64.86;100837.48;;;;-57
2020/08/06 08:40:47;;;;;;;100.06;90.81;;;;;;;21.34;64.84;100835.72;;;;-51
2020/08/06 08:43:47;;;;;;;105.60;96.11;;;;;;;21.34;64.57;100828.78;;;;-51
2020/08/06 08:46:47;;;;;;;108.17;99.06;;;;;;;21.35;64.61;100826.75;;;;-51
2020/08/06 08:49:47;;;;;;;112.93;102.45;;;;;;;21.36;64.62;100829.29;;;;-55
2020/08/06 08:52:47;;;;;;;116.07;105.29;;;;;;;21.38;64.66;100824.89;;;;-51
2020/08/06 08:55:47;;;;;;;93.83;85.53;;;;;;;21.39;64.84;100821.30;;;;-51
2020/08/06 08:58:47;;;;;;;94.80;86.05;;;;;;;21.43;64.87;100827.39;;;;-57
2020/08/06 09:01:47;;;;;;;111.73;102.07;;;;;;;21.45;64.93;100829.19;;;;-53
2020/08/06 09:04:47;;;;;;;110.94;101.17;;;;;;;21.46;64.87;100824.71;;;;-60
2020/08/06 09:07:47;;;;;;;75.87;68.51;;;;;;;21.46;64.55;100829.61;;;;-57
2020/08/06 09:10:47;;;;;;;88.89;80.99;;;;;;;21.47;64.80;100827.80;;;;-57
2020/08/06 09:13:47;;;;;;;114.56;104.16;;;;;;;21.47;64.77;100822.17;;;;-57
2020/08/06 09:16:47;;;;;;;85.71;78.13;;;;;;;21.47;64.72;100817.20;;;;-57
2020/08/06 09:19:47;;;;;;;107.23;97.93;;;;;;;21.47;64.69;100815.58;;;;-58
2020/08/06 09:22:47;;;;;;;95.83;86.43;;;;;;;21.47;64.57;100817.52;;;;-57
2020/08/06 09:25:47;;;;;;;105.40;96.42;;;;;;;21.48;64.52;100808.74;;;;-57
2020/08/06 09:28:47;;;;;;;84.87;77.37;;;;;;;21.48;64.60;100802.77;;;;-55
2020/08/06 09:31:47;;;;;;;90.51;82.67;;;;;;;21.49;64.84;100808.89;;;;-52
2020/08/06 09:34:47;;;;;;;81.21;72.97;;;;;;;21.51;64.90;100810.37;;;;-53
2020/08/06 09:37:47;;;;;;;72.81;66.07;;;;;;;21.52;64.85;100807.70;;;;-53
2020/08/06 09:40:47;;;;;;;88.00;79.43;;;;;;;21.54;64.80;100808.25;;;;-53
2020/08/06 09:43:47;;;;;;;91.55;83.18;;;;;;;21.54;64.61;100805.56;;;;-53
2020/08/06 09:46:47;;;;;;;88.34;80.43;;;;;;;21.54;64.65;100805.09;;;;-53
2020/08/06 09:49:47;;;;;;;95.67;86.50;;;;;;;21.55;64.56;100796.52;;;;-53
2020/08/06 09:52:47;;;;;;;46.95;41.83;;;;;;;21.55;64.46;100800.60;;;;-53
2020/08/06 09:55:47;;;;;;;45.62;41.08;;;;;;;21.54;64.39;100795.96;;;;-51
2020/08/06 09:58:47;;;;;;;47.26;42.39;;;;;;;21.55;64.54;100793.27;;;;-59
2020/08/06 10:01:47;;;;;;;44.73;40.16;;;;;;;21.55;64.67;100790.00;;;;-57
2020/08/06 10:04:47;;;;;;;54.16;48.79;;;;;;;21.56;64.62;100791.48;;;;-57
2020/08/06 10:07:47;;;;;;;58.11;52.33;;;;;;;21.56;64.55;100794.07;;;;-57
2020/08/06 10:10:47;;;;;;;57.31;51.75;;;;;;;21.57;64.48;100795.63;;;;-57
2020/08/06 10:13:47;;;;;;;69.04;62.54;;;;;;;21.56;64.45;100792.70;;;;-56
2020/08/06 10:16:47;;;;;;;58.14;52.36;;;;;;;21.58;64.33;100790.33;;;;-57
2020/08/06 10:19:47;;;;;;;64.07;57.81;;;;;;;21.58;64.37;100785.43;;;;-57
2020/08/06 10:22:47;;;;;;;71.65;65.42;;;;;;;21.58;64.31;100783.01;;;;-57
2020/08/06 10:25:47;;;;;;;72.44;65.62;;;;;;;21.58;64.29;100786.44;;;;-57
2020/08/06 10:28:47;;;;;;;77.46;69.64;;;;;;;21.60;64.75;100786.74;;;;-58
2020/08/06 10:31:47;;;;;;;70.21;60.80;;;;;;;21.59;64.62;100785.28;;;;-52
2020/08/06 10:34:47;;;;;;;66.14;59.72;;;;;;;21.58;64.58;100783.01;;;;-53
2020/08/06 10:37:47;;;;;;;70.65;64.26;;;;;;;21.57;64.40;100779.73;;;;-53
2020/08/06 10:40:47;;;;;;;78.81;71.93;;;;;;;21.57;64.43;100776.87;;;;-53
2020/08/06 10:43:47;;;;;;;92.51;83.97;;;;;;;21.57;64.38;100781.11;;;;-53
2020/08/06 10:46:47;;;;;;;87.02;79.33;;;;;;;21.56;64.36;100772.23;;;;-53
2020/08/06 10:49:47;;;;;;;84.93;77.41;;;;;;;21.56;64.40;100777.51;;;;-53
2020/08/06 10:52:47;;;;;;;83.84;76.15;;;;;;;21.55;64.38;100767.00;;;;-53
2020/08/06 10:55:47;;;;;;;90.03;82.10;;;;;;;21.55;64.32;100766.11;;;;-53
2020/08/06 10:58:47;;;;;;;81.67;74.83;;;;;;;21.54;64.26;100767.66;;;;-53
2020/08/06 11:01:47;;;;;;;75.93;69.19;;;;;;;21.54;64.36;100766.74;;;;-53
2020/08/06 11:04:47;;;;;;;79.74;72.76;;;;;;;21.53;64.33;100760.22;;;;-53
2020/08/06 11:07:47;;;;;;;53.77;48.75;;;;;;;21.53;64.38;100759.17;;;;-52
2020/08/06 11:10:47;;;;;;;61.90;56.29;;;;;;;21.53;64.34;100762.59;;;;-53
2020/08/06 11:13:47;;;;;;;65.09;58.87;;;;;;;21.53;64.34;100758.03;;;;-52
2020/08/06 11:16:47;;;;;;;58.16;52.88;;;;;;;21.51;64.29;100753.13;;;;-53
2020/08/06 11:19:47;;;;;;;71.61;65.39;;;;;;;21.52;64.31;100756.87;;;;-53
2020/08/06 11:22:47;;;;;;;64.08;58.17;;;;;;;21.51;64.30;100758.75;;;;-53
2020/08/06 11:25:47;;;;;;;69.29;63.29;;;;;;;21.51;64.32;100758.75;;;;-52
2020/08/06 11:28:47;;;;;;;75.33;68.83;;;;;;;21.50;64.25;100751.34;;;;-53
2020/08/06 11:31:47;;;;;;;74.09;67.83;;;;;;;21.49;64.28;100740.31;;;;-53
2020/08/06 11:34:47;;;;;;;69.35;63.06;;;;;;;21.49;64.30;100738.20;;;;-53
2020/08/06 11:37:47;;;;;;;47.30;43.07;;;;;;;21.49;64.29;100738.52;;;;-53
2020/08/06 11:40:47;;;;;;;46.49;42.25;;;;;;;21.48;64.24;100739.02;;;;-53
2020/08/06 11:43:47;;;;;;;47.37;43.17;;;;;;;21.48;64.26;100742.37;;;;-53
2020/08/06 11:46:47;;;;;;;40.66;36.79;;;;;;;21.48;64.23;100735.69;;;;-53
2020/08/06 11:49:47;;;;;;;45.55;41.13;;;;;;;21.48;64.48;100729.31;;;;-54
2020/08/06 11:52:47;;;;;;;45.59;40.99;;;;;;;21.49;64.26;100730.37;;;;-54
2020/08/06 11:55:47;;;;;;;45.48;41.23;;;;;;;21.49;64.31;100729.31;;;;-54
2020/08/06 11:58:47;;;;;;;37.11;31.03;;;;;;;21.48;64.29;100727.12;;;;-54
2020/08/06 12:01:47;;;;;;;40.13;36.58;;;;;;;21.48;64.25;100732.63;;;;-55
2020/08/06 12:04:47;;;;;;;39.38;35.35;;;;;;;21.49;64.38;100730.85;;;;-58
2020/08/06 12:07:47;;;;;;;42.31;38.15;;;;;;;21.52;64.61;100724.41;;;;-61
2020/08/06 12:10:47;;;;;;;38.57;34.96;;;;;;;21.54;64.60;100725.58;;;;-58
2020/08/06 12:13:56;;;;;;;51.15;46.15;;;;;;;21.55;64.60;100723.53;;;;-59
2020/08/06 12:16:47;;;;;;;48.83;44.47;;;;;;;21.58;64.63;100716.19;;;;-56
2020/08/06 12:19:47;;;;;;;52.21;47.28;;;;;;;21.58;64.69;100714.64;;;;-54
2020/08/06 12:22:47;;;;;;;57.20;52.17;;;;;;;21.59;64.90;100711.63;;;;-60
2020/08/06 12:25:47;;;;;;;58.44;52.91;;;;;;;21.61;65.00;100714.50;;;;-58
2020/08/06 12:28:47;;;;;;;46.09;41.74;;;;;;;21.64;64.98;100707.88;;;;-55
2020/08/06 12:31:47;;;;;;;46.02;41.79;;;;;;;21.66;64.98;100706.41;;;;-51
2020/08/06 12:34:47;;;;;;;52.75;47.79;;;;;;;21.68;64.90;100699.23;;;;-56
2020/08/06 12:37:47;;;;;;;58.34;53.17;;;;;;;21.70;64.88;100695.23;;;;-53
2020/08/06 12:40:47;;;;;;;64.60;58.76;;;;;;;21.71;64.99;100687.83;;;;-51
2020/08/06 12:43:47;;;;;;;56.72;51.61;;;;;;;21.72;64.89;100692.39;;;;-57
2020/08/06 12:46:47;;;;;;;58.80;53.39;;;;;;;21.74;64.95;100692.06;;;;-53
2020/08/06 12:49:47;;;;;;;49.82;45.11;;;;;;;21.77;64.93;100684.80;;;;-54
2020/08/06 12:52:47;;;;;;;52.08;47.10;;;;;;;21.78;65.07;100682.70;;;;-53
2020/08/06 12:55:47;;;;;;;61.91;56.51;;;;;;;21.80;65.04;100684.49;;;;-57
2020/08/06 12:58:47;;;;;;;57.30;52.11;;;;;;;21.82;65.11;100678.22;;;;-52
2020/08/06 13:01:47;;;;;;;63.05;57.45;;;;;;;21.82;65.07;100682.45;;;;-57
2020/08/06 13:04:47;;;;;;;73.73;67.27;;;;;;;21.83;64.86;100675.98;;;;-56
2020/08/06 13:07:47;;;;;;;69.37;63.15;;;;;;;21.82;64.94;100672.41;;;;-54
2020/08/06 13:10:47;;;;;;;69.85;63.69;;;;;;;21.83;64.94;100669.08;;;;-55
2020/08/06 13:13:47;;;;;;;62.26;56.86;;;;;;;21.83;64.81;100662.30;;;;-55
2020/08/06 13:16:47;;;;;;;77.60;70.81;;;;;;;21.82;64.76;100663.27;;;;-55
2020/08/06 13:19:47;;;;;;;82.79;75.57;;;;;;;21.83;64.69;100662.28;;;;-54
2020/08/06 13:22:47;;;;;;;85.22;77.86;;;;;;;21.82;64.66;100664.74;;;;-50
2020/08/06 13:25:47;;;;;;;88.70;81.02;;;;;;;21.82;64.65;100665.32;;;;-52
2020/08/06 13:28:47;;;;;;;82.97;75.79;;;;;;;21.81;64.67;100656.76;;;;-52
2020/08/06 13:31:47;;;;;;;99.17;90.79;;;;;;;21.82;64.64;100657.39;;;;-52
2020/08/06 13:34:47;;;;;;;91.17;83.43;;;;;;;21.82;64.60;100653.97;;;;-52
2020/08/06 13:37:47;;;;;;;88.65;81.27;;;;;;;21.82;64.53;100649.73;;;;-52
2020/08/06 13:40:47;;;;;;;90.81;82.80;;;;;;;21.82;64.54;100647.86;;;;-52
2020/08/06 13:43:47;;;;;;;78.04;71.05;;;;;;;21.82;64.44;100654.14;;;;-52
2020/08/06 13:46:47;;;;;;;90.76;83.09;;;;;;;21.82;64.42;100649.33;;;;-52
2020/08/06 13:49:47;;;;;;;83.90;76.87;;;;;;;21.82;64.33;100648.18;;;;-52
2020/08/06 13:52:47;;;;;;;74.36;68.04;;;;;;;21.82;64.40;100651.45;;;;-52
2020/08/06 13:55:47;;;;;;;81.58;74.63;;;;;;;21.82;64.39;100642.07;;;;-52
2020/08/06 13:58:47;;;;;;;72.37;65.75;;;;;;;21.81;64.39;100644.77;;;;-61
2020/08/06 14:01:47;;;;;;;78.95;72.18;;;;;;;21.83;64.42;100641.16;;;;-55
2020/08/06 14:04:47;;;;;;;75.91;68.88;;;;;;;21.84;64.41;100633.58;;;;-51
2020/08/06 14:07:47;;;;;;;77.63;70.39;;;;;;;21.86;64.56;100636.19;;;;-58
2020/08/06 14:10:47;;;;;;;70.43;64.13;;;;;;;21.87;64.59;100632.94;;;;-57
2020/08/06 14:13:47;;;;;;;71.69;65.51;;;;;;;21.88;64.75;100634.16;;;;-58
2020/08/06 14:16:47;;;;;;;75.68;67.42;;;;;;;21.88;64.76;100633.17;;;;-55
2020/08/06 14:19:47;;;;;;;79.87;72.94;;;;;;;21.89;64.77;100628.86;;;;-51
2020/08/06 14:22:47;;;;;;;77.81;70.71;;;;;;;21.93;64.84;100629.88;;;;-54
2020/08/06 14:25:47;;;;;;;68.12;62.08;;;;;;;21.95;64.83;100622.05;;;;-57
2020/08/06 14:28:47;;;;;;;47.43;42.73;;;;;;;21.98;64.72;100626.63;;;;-51
2020/08/06 14:31:47;;;;;;;57.65;52.36;;;;;;;22.00;64.77;100627.04;;;;-59
2020/08/06 14:34:47;;;;;;;51.33;46.25;;;;;;;22.02;64.73;100629.66;;;;-57
2020/08/06 14:37:47;;;;;;;53.09;47.88;;;;;;;22.03;64.68;100630.94;;;;-55
2020/08/06 14:40:47;;;;;;;47.61;41.99;;;;;;;22.04;64.61;100632.97;;;;-53
2020/08/06 14:43:47;;;;;;;52.20;47.37;;;;;;;22.04;64.70;100632.97;;;;-54
2020/08/06 14:46:47;;;;;;;68.31;61.54;;;;;;;22.03;64.57;100631.36;;;;-53
2020/08/06 14:49:47;;;;;;;59.63;53.65;;;;;;;22.03;64.79;100625.88;;;;-60
2020/08/06 14:52:47;;;;;;;68.16;62.01;;;;;;;22.04;64.78;100623.53;;;;-52
2020/08/06 14:55:47;;;;;;;68.93;62.35;;;;;;;22.07;64.75;100624.98;;;;-50
2020/08/06 14:58:47;;;;;;;61.37;55.79;;;;;;;22.08;64.74;100625.78;;;;-52
2020/08/06 15:01:47;;;;;;;72.18;65.33;;;;;;;22.08;64.81;100620.09;;;;-51
2020/08/06 15:04:47;;;;;;;89.15;80.89;;;;;;;22.10;64.77;100619.73;;;;-53
2020/08/06 15:07:47;;;;;;;91.03;83.06;;;;;;;22.10;64.71;100618.34;;;;-53
2020/08/06 15:10:47;;;;;;;82.93;75.46;;;;;;;22.11;64.56;100617.47;;;;-56
2020/08/06 15:13:47;;;;;;;80.53;73.55;;;;;;;22.11;64.58;100612.90;;;;-56
2020/08/06 15:16:47;;;;;;;90.07;81.66;;;;;;;22.09;64.65;100611.02;;;;-56
2020/08/06 15:19:47;;;;;;;62.65;56.82;;;;;;;22.09;64.57;100607.27;;;;-56
2020/08/06 15:22:47;;;;;;;87.38;79.91;;;;;;;22.08;64.45;100604.17;;;;-57
2020/08/06 15:25:47;;;;;;;80.91;73.99;;;;;;;22.08;64.56;100603.68;;;;-56
2020/08/06 15:28:47;;;;;;;97.39;88.95;;;;;;;22.07;64.53;100599.20;;;;-57
2020/08/06 15:31:47;;;;;;;100.84;92.10;;;;;;;22.08;64.56;100604.67;;;;-54
2020/08/06 15:34:47;;;;;;;93.43;85.27;;;;;;;22.08;64.56;100603.53;;;;-55
2020/08/06 15:37:47;;;;;;;102.71;94.06;;;;;;;22.09;64.64;100601.30;;;;-58
2020/08/06 15:40:47;;;;;;;81.71;74.47;;;;;;;22.10;64.80;100598.52;;;;-52
2020/08/06 15:43:47;;;;;;;84.24;76.86;;;;;;;22.10;64.71;100600.91;;;;-56
2020/08/06 15:46:47;;;;;;;79.41;72.20;;;;;;;22.11;64.76;100598.28;;;;-58
2020/08/06 15:49:47;;;;;;;89.19;81.31;;;;;;;22.11;64.70;100599.34;;;;-55
2020/08/06 15:52:47;;;;;;;97.00;88.40;;;;;;;22.11;64.55;100596.89;;;;-61
2020/08/06 15:55:47;;;;;;;87.41;79.65;;;;;;;22.12;64.64;100596.48;;;;-61
2020/08/06 15:58:46;;;;;;;82.12;74.71;;;;;;;22.11;64.69;100595.91;;;;-57
2020/08/06 16:01:46;;;;;;;76.63;69.68;;;;;;;22.11;64.58;100595.18;;;;-57
2020/08/06 16:04:46;;;;;;;76.74;69.45;;;;;;;22.11;64.56;100591.50;;;;-56
2020/08/06 16:07:47;;;;;;;73.34;67.01;;;;;;;22.11;64.45;100594.13;;;;-57
2020/08/06 16:10:47;;;;;;;75.25;67.33;;;;;;;22.11;64.47;100593.96;;;;-51
2020/08/06 16:13:47;;;;;;;66.62;60.54;;;;;;;22.12;64.39;100596.39;;;;-56